createdAt,value
2019-04-21T00:00:06.216Z,1026.15
2019-04-21T00:05:24.550Z,1026.15
2019-04-21T00:10:26.939Z,1026.15
2019-04-21T00:15:15.814Z,1026.15
2019-04-21T00:20:15.013Z,1026.15
2019-04-21T00:25:19.133Z,1026.15
2019-04-21T00:30:24.113Z,1026.15
2019-04-21T00:35:07.595Z,1026.15
2019-04-21T00:40:22.525Z,1026.15
2019-04-21T00:45:16.497Z,1026.15
2019-04-21T00:50:24.726Z,1026.15
2019-04-21T00:55:38.643Z,1026.15
2019-04-21T01:00:22.285Z,1026.15
2019-04-21T01:05:33.570Z,1026.15
2019-04-21T01:10:17.434Z,1026.15
2019-04-21T01:15:25.002Z,1026.15
2019-04-21T01:20:16.201Z,1026.15
2019-04-21T01:25:12.159Z,1026.15
2019-04-21T01:30:24.894Z,1026.15
2019-04-21T01:35:21.397Z,1026.15
2019-04-21T01:40:32.067Z,1026.15
2019-04-21T01:45:21.872Z,1026.15
2019-04-21T01:50:21.011Z,1026.15
2019-04-21T01:55:18.360Z,1026.15
2019-04-21T02:00:14.805Z,1026.15
2019-04-21T02:05:26.685Z,1026.15
2019-04-21T02:10:26.929Z,1026.15
2019-04-21T02:15:16.960Z,1026.15
2019-04-21T02:20:15.197Z,1026.15
2019-04-21T02:25:25.818Z,1026.15
2019-04-21T02:30:36.063Z,1026.15
2019-04-21T02:35:30.476Z,1026.15
2019-04-21T02:40:40.453Z,1026.15
2019-04-21T02:45:34.210Z,1026.15
2019-04-21T02:55:28.917Z,1026.15
2019-04-21T03:05:42.900Z,1026.15
2019-04-21T03:10:26.536Z,1026.15
2019-04-21T03:15:41.206Z,1026.15
2019-04-21T03:20:39.960Z,1026.15
2019-04-21T03:25:47.384Z,1026.15
2019-04-21T03:45:39.015Z,1026.15
2019-04-21T03:50:27.751Z,1026.15
2019-04-21T04:05:51.249Z,1026.15
2019-04-21T04:10:34.517Z,1026.15
2019-04-21T04:15:39.047Z,1026.15
2019-04-21T04:21:40.939Z,1026.15
2019-04-21T04:25:27.778Z,1026.15
2019-04-21T04:30:37.860Z,1026.15
2019-04-21T04:35:46.157Z,1026.15
2019-04-21T04:40:34.675Z,1026.15
2019-04-21T04:50:43.629Z,1026.15
2019-04-21T04:55:33.583Z,1026.15
2019-04-21T05:00:35.097Z,1026.15
2019-04-21T05:05:38.112Z,1026.15
2019-04-21T05:10:41.693Z,1026.15
2019-04-21T05:15:23.730Z,1026.15
2019-04-21T05:20:29.786Z,1026.15
2019-04-21T05:25:18.586Z,1026.15
2019-04-21T05:30:30.690Z,1026.15
2019-04-21T05:35:26.858Z,1026.15
2019-04-21T05:40:17.417Z,1026.15
2019-04-21T05:45:29.995Z,1026.15
2019-04-21T05:50:23.754Z,1026.15
2019-04-21T05:55:34.623Z,1026.15
2019-04-21T06:00:39.096Z,1026.15
2019-04-21T06:05:30.168Z,1026.15
2019-04-21T06:10:27.381Z,1026.15
2019-04-21T06:15:34.898Z,1026.15
2019-04-21T06:20:27.659Z,1026.15
2019-04-21T06:26:21.596Z,1026.15
2019-04-21T06:30:27.607Z,1026.15
2019-04-21T06:35:28.158Z,1026.15
2019-04-21T06:40:30.429Z,1026.15
2019-04-21T06:45:27.327Z,1022.84
2019-04-21T06:50:36.911Z,1022.88
2019-04-21T06:55:26.810Z,1022.88
2019-04-21T07:00:21.897Z,1022.84
2019-04-21T07:05:26.545Z,1022.88
2019-04-21T07:10:26.563Z,1022.84
2019-04-21T07:15:23.645Z,1022.84
2019-04-21T07:20:21.467Z,1022.86
2019-04-21T07:25:29.745Z,1022.8
2019-04-21T07:35:23.612Z,1022.7
2019-04-21T07:40:22.267Z,1022.72
2019-04-21T07:45:17.986Z,1022.65
2019-04-21T07:50:26.331Z,1022.62
2019-04-21T08:00:29.750Z,1022.47
2019-04-21T08:05:20.516Z,1022.42
2019-04-21T08:10:22.554Z,1022.37
2019-04-21T08:20:18.822Z,1022.36
2019-04-21T08:30:26.253Z,1022.29
2019-04-21T08:35:49.481Z,1022.15
2019-04-21T08:40:26.241Z,1022.17
2019-04-21T08:45:33.607Z,1022.07
2019-04-21T08:50:20.853Z,1022.11
2019-04-21T08:55:30.611Z,1022.04
2019-04-21T09:00:29.583Z,1022.05
2019-04-21T09:05:20.571Z,1021.96
2019-04-21T09:10:26.945Z,1021.9
2019-04-21T09:15:21.692Z,1021.73
2019-04-21T09:20:26.572Z,1021.68
2019-04-21T09:25:26.750Z,1021.64
2019-04-21T09:30:05.022Z,1021.57
2019-04-21T09:35:07.300Z,1021.5
2019-04-21T09:40:04.561Z,1021.49
2019-04-21T09:45:06.125Z,1021.39
2019-04-21T09:50:04.773Z,1021.27
2019-04-21T09:55:09.987Z,1021.31
2019-04-21T10:00:11.314Z,1021.27
2019-04-21T10:05:02.529Z,1021.19
2019-04-21T10:10:03.836Z,1021.08
2019-04-21T10:15:04.294Z,1020.99
2019-04-21T10:20:03.204Z,1020.89
2019-04-21T10:25:03.014Z,1020.85
2019-04-21T10:30:03.653Z,1020.77
2019-04-21T10:35:03.260Z,1020.73
2019-04-21T10:40:03.558Z,1020.68
2019-04-21T10:45:03.326Z,1020.64
2019-04-21T10:50:02.883Z,1020.56
2019-04-21T10:55:17.188Z,1020.37
2019-04-21T11:00:04.120Z,1020.34
2019-04-21T11:05:03.024Z,1020.28
2019-04-21T11:10:02.576Z,1020.21
2019-04-21T11:15:03.287Z,1020.08
2019-04-21T11:20:02.791Z,1020.14
2019-04-21T11:25:03.397Z,1019.98
2019-04-21T11:30:02.883Z,1019.9
2019-04-21T11:35:03.394Z,1019.77
2019-04-21T11:40:06.830Z,1019.74
2019-04-21T11:45:04.103Z,1019.71
2019-04-21T11:50:03.362Z,1019.66
2019-04-21T11:55:02.876Z,1019.57
2019-04-21T12:00:03.939Z,1019.51
2019-04-21T12:05:03.497Z,1019.47
2019-04-21T12:10:03.772Z,1019.41
2019-04-21T12:15:03.982Z,1019.32
2019-04-21T12:20:03.271Z,1019.29
2019-04-21T12:25:03.065Z,1019.19
2019-04-21T12:30:03.827Z,1019.25
2019-04-21T12:35:03.870Z,1019.11
2019-04-21T12:40:03.279Z,1019.05
2019-04-21T12:45:03.596Z,1018.95
2019-04-21T12:50:03.026Z,1018.94
2019-04-21T12:55:03.758Z,1018.84
2019-04-21T13:00:04.733Z,1018.77
2019-04-21T13:10:04.268Z,1018.45
2019-04-21T13:15:04.058Z,1018.41
2019-04-21T13:20:03.438Z,1018.31
2019-04-21T13:25:02.463Z,1018.25
2019-04-21T13:30:04.147Z,1018.21
2019-04-21T13:35:03.189Z,1018.04
2019-04-21T13:40:24.858Z,1017.93
2019-04-21T13:45:04.211Z,1018.01
2019-04-21T13:50:05.282Z,1017.89
2019-04-21T13:55:03.391Z,1017.91
2019-04-21T14:00:03.631Z,1017.81
2019-04-21T14:05:03.457Z,1017.72
2019-04-21T14:10:06.201Z,1017.62
2019-04-21T14:15:04.054Z,1017.5
2019-04-21T14:20:03.499Z,1017.54
2019-04-21T14:25:03.753Z,1017.4
2019-04-21T14:30:04.831Z,1017.39
2019-04-21T14:35:04.785Z,1017.31
2019-04-21T14:40:07.404Z,1017.22
2019-04-21T14:45:03.333Z,1017.08
2019-04-21T14:50:03.079Z,1017.1
2019-04-21T14:55:02.889Z,1017.04
2019-04-21T15:00:03.020Z,1016.98
2019-04-21T15:05:03.917Z,1016.96
2019-04-21T15:10:07.849Z,1016.87
2019-04-21T15:15:02.943Z,1016.83
2019-04-21T15:20:06.676Z,1016.85
2019-04-21T15:25:03.319Z,1016.78
2019-04-21T15:30:02.967Z,1016.78
2019-04-21T15:35:04.030Z,1016.68
2019-04-21T15:40:12.253Z,1016.67
2019-04-21T15:45:02.946Z,1016.68
2019-04-21T15:50:07.379Z,1016.55
2019-04-21T15:55:03.419Z,1016.48
2019-04-21T16:00:02.988Z,1016.51
2019-04-21T16:05:02.401Z,1016.45
2019-04-21T16:10:06.214Z,1016.42
2019-04-21T16:15:02.932Z,1016.34
2019-04-21T16:20:03.999Z,1016.26
2019-04-21T16:25:03.339Z,1016.24
2019-04-21T16:30:03.910Z,1016.16
2019-04-21T16:35:08.269Z,1016.08
2019-04-21T16:40:03.396Z,1016.06
2019-04-21T16:45:03.284Z,1016.01
2019-04-21T16:50:03.553Z,1015.95
2019-04-21T16:55:05.103Z,1015.89
2019-04-21T17:00:02.828Z,1015.95
2019-04-21T17:05:04.672Z,1015.92
2019-04-21T17:10:04.441Z,1015.81
2019-04-21T17:15:21.506Z,1015.75
2019-04-21T17:20:15.801Z,1015.7
2019-04-21T17:25:04.317Z,1015.69
2019-04-21T17:30:04.233Z,1015.58
2019-04-21T17:35:03.994Z,1015.72
2019-04-21T17:40:05.278Z,1015.68
2019-04-21T17:45:03.758Z,1015.62
2019-04-21T17:50:04.745Z,1015.57
2019-04-21T17:55:10.303Z,1015.62
2019-04-21T18:00:25.866Z,1015.64
2019-04-21T18:05:21.334Z,1015.55
2019-04-21T18:10:19.070Z,1015.64
2019-04-21T18:15:26.467Z,1015.58
2019-04-21T18:20:03.829Z,1015.61
2019-04-21T18:25:06.662Z,1015.61
2019-04-21T18:30:02.823Z,1015.61
2019-04-21T18:35:07.035Z,1015.68
2019-04-21T18:40:12.336Z,1015.63
2019-04-21T18:45:40.296Z,1015.62
2019-04-21T18:50:04.045Z,1015.6
2019-04-21T18:55:16.310Z,1015.58
2019-04-21T19:00:12.804Z,1015.64
2019-04-21T19:05:09.022Z,1015.6
2019-04-21T19:10:28.228Z,1015.66
2019-04-21T19:15:25.426Z,1015.7
2019-04-21T19:20:26.108Z,1015.7
2019-04-21T19:25:20.824Z,1015.76
2019-04-21T19:30:33.970Z,1015.71
2019-04-21T19:35:05.538Z,1015.67
2019-04-21T19:40:16.153Z,1015.66
2019-04-21T19:45:16.513Z,1015.71
2019-04-21T19:50:21.388Z,1015.68
2019-04-21T19:55:02.646Z,1015.61
2019-04-21T20:00:05.511Z,1015.56
2019-04-21T20:05:07.935Z,1015.54
2019-04-21T20:10:23.961Z,1015.52
2019-04-21T20:15:20.011Z,1015.48
2019-04-21T20:20:04.026Z,1015.42
2019-04-21T20:25:07.904Z,1015.42
2019-04-21T20:30:21.058Z,1015.49
2019-04-21T20:35:26.310Z,1015.43
2019-04-21T20:40:15.935Z,1015.38
2019-04-21T20:50:18.474Z,1015.35
2019-04-21T20:55:17.914Z,1015.32
2019-04-21T21:00:19.292Z,1015.25
2019-04-21T21:05:19.022Z,1015.23
2019-04-21T21:10:20.878Z,1015.13
2019-04-21T21:15:10.134Z,1015.07
2019-04-21T21:20:19.652Z,1015.08
2019-04-21T21:25:29.032Z,1015.08
2019-04-21T21:30:21.655Z,1015.04
2019-04-21T21:35:19.228Z,1015.02
2019-04-21T21:40:21.858Z,1015.01
2019-04-21T21:45:11.590Z,1014.95
2019-04-21T21:50:10.837Z,1014.89
2019-04-21T21:55:03.661Z,1014.93
2019-04-21T22:00:10.774Z,1014.87
2019-04-21T22:05:09.208Z,1014.8
2019-04-21T22:10:04.381Z,1014.77
2019-04-21T22:15:12.534Z,1014.69
2019-04-21T22:20:22.805Z,1014.69
2019-04-21T22:25:10.140Z,1014.62
2019-04-21T22:30:05.917Z,1014.6
2019-04-21T22:35:08.857Z,1014.61
2019-04-21T22:40:14.322Z,1014.62
2019-04-21T22:45:02.867Z,1014.6
2019-04-21T22:50:04.420Z,1014.53
2019-04-21T22:55:08.528Z,1014.52
2019-04-21T23:00:07.409Z,1014.42
2019-04-21T23:05:03.947Z,1014.46
2019-04-21T23:10:03.489Z,1014.37
2019-04-21T23:15:09.270Z,1014.37
2019-04-21T23:20:22.654Z,1014.37
2019-04-21T23:25:18.278Z,1014.3
2019-04-21T23:30:25.898Z,1014.26
2019-04-21T23:35:14.219Z,1014.22
2019-04-21T23:40:07.577Z,1014.2
2019-04-21T23:45:03.774Z,1014.15
2019-04-21T23:50:15.967Z,1014.09
2019-04-21T23:55:03.280Z,1014.0
